Time;durP1;ratioP1;P1;durP2;ratioP2;P2;SDS_P1;SDS_P2;PMS_P1;PMS_P2;Temp;Humidity;BMP_temperature;BMP_pressure;BME280_temperature;BME280_humidity;BME280_pressure;Samples;Min_cycle;Max_cycle;Signal;HPM_P1;HPM_P2
2022/08/23 00:05:14;;;;;;;3.80;1.90;;;18.70;99.90;;;;;;10543180;28;20201;-79
2022/08/23 00:10:36;;;;;;;3.38;1.70;;;18.70;99.90;;;;;;10563667;28;20279;-80
2022/08/23 00:15:59;;;;;;;2.00;1.40;;;18.70;99.90;;;;;;10562272;28;20243;-80
2022/08/23 00:21:20;;;;;;;3.70;1.98;;;18.70;99.90;;;;;;10560287;28;20230;-80
2022/08/23 00:27:00;;;;;;;5.60;1.73;;;18.70;99.90;;;;;;10560968;28;20489;-79
2022/08/23 00:32:32;;;;;;;3.30;1.60;;;18.80;99.90;;;;;;10531934;28;20384;-80
2022/08/23 00:37:56;;;;;;;6.30;1.80;;;18.80;99.90;;;;;;10520474;28;20438;-79
2022/08/23 00:49:07;;;;;;;3.15;1.90;;;18.80;99.90;;;;;;10520289;28;20258;-79
2022/08/23 00:54:30;;;;;;;2.80;1.52;;;18.80;99.90;;;;;;10520044;28;20191;-81
2022/08/23 00:59:52;;;;;;;2.67;1.75;;;18.80;99.90;;;;;;10519614;28;20222;-80
2022/08/23 01:05:14;;;;;;;3.85;1.88;;;18.90;99.90;;;;;;10541335;28;20218;-80
2022/08/23 01:10:46;;;;;;;5.60;1.98;;;18.80;99.90;;;;;;10560717;28;20194;-80
2022/08/23 01:16:14;;;;;;;2.40;1.70;;;18.80;99.90;;;;;;10560767;28;20256;-81
2022/08/23 01:21:51;;;;;;;5.50;2.35;;;18.80;99.90;;;;;;10560340;28;20241;-79
2022/08/23 01:27:14;;;;;;;4.20;2.10;;;18.80;99.90;;;;;;10477016;28;20479;-78
2022/08/23 01:32:46;;;;;;;6.78;1.60;;;18.80;99.90;;;;;;10508491;28;20199;-79
2022/08/23 01:38:09;;;;;;;3.20;1.63;;;18.80;99.90;;;;;;10518275;28;20257;-81
2022/08/23 01:43:31;;;;;;;7.07;1.80;;;18.80;99.90;;;;;;10526309;28;20383;-81
2022/08/23 01:48:54;;;;;;;2.80;1.65;;;18.80;99.90;;;;;;10512496;28;20222;-76
2022/08/23 01:54:16;;;;;;;7.28;1.85;;;18.80;99.90;;;;;;10526176;28;20202;-77
2022/08/23 01:59:42;;;;;;;4.45;1.90;;;18.80;99.90;;;;;;10511191;28;20293;-81
2022/08/23 02:05:05;;;;;;;6.05;1.85;;;18.80;99.90;;;;;;10532511;28;20350;-80
2022/08/23 02:10:26;;;;;;;3.28;1.73;;;18.80;99.90;;;;;;10552887;28;20206;-77
2022/08/23 02:15:50;;;;;;;5.28;1.75;;;18.90;99.90;;;;;;10552576;28;20206;-80
2022/08/23 02:21:12;;;;;;;2.50;1.67;;;18.80;99.90;;;;;;10566749;28;20237;-78
2022/08/23 02:26:35;;;;;;;2.28;1.80;;;18.80;99.90;;;;;;10541372;28;20237;-78
2022/08/23 02:31:59;;;;;;;4.63;1.73;;;18.80;99.90;;;;;;10524670;28;20266;-79
2022/08/23 02:37:20;;;;;;;3.90;2.20;;;18.80;99.90;;;;;;10525670;28;20477;-80
2022/08/23 02:42:41;;;;;;;4.40;2.10;;;18.80;99.90;;;;;;10495582;28;20237;-81
2022/08/23 02:48:04;;;;;;;3.83;2.20;;;18.80;99.90;;;;;;10524094;28;20183;-80
2022/08/23 02:53:36;;;;;;;4.97;2.05;;;18.80;99.90;;;;;;10523485;28;20219;-77
2022/08/23 02:59:01;;;;;;;3.35;1.70;;;18.90;99.90;;;;;;10523311;28;20226;-80
2022/08/23 03:04:23;;;;;;;3.08;1.88;;;18.90;99.90;;;;;;10538725;28;20198;-79
2022/08/23 03:09:53;;;;;;;3.25;1.80;;;18.90;99.90;;;;;;10565455;28;20190;-78
2022/08/23 03:15:41;;;;;;;3.80;1.90;;;18.90;99.90;;;;;;10565465;28;20199;-77
2022/08/23 03:21:03;;;;;;;6.05;1.85;;;18.90;99.90;;;;;;10565547;28;20272;-77
2022/08/23 03:26:27;;;;;;;5.15;2.08;;;18.90;99.90;;;;;;10534549;28;20207;-79
2022/08/23 03:31:50;;;;;;;3.60;1.70;;;18.90;99.90;;;;;;10522454;28;20202;-78
2022/08/23 03:37:11;;;;;;;4.90;1.60;;;18.90;99.90;;;;;;10523617;28;20191;-79
2022/08/23 03:42:33;;;;;;;5.07;1.95;;;18.90;99.90;;;;;;10521944;28;20219;-79
2022/08/23 03:47:57;;;;;;;7.00;2.78;;;18.90;99.90;;;;;;10521732;28;20489;-77
2022/08/23 03:53:19;;;;;;;3.75;2.10;;;18.90;99.90;;;;;;10507083;28;20229;-77
2022/08/23 03:58:43;;;;;;;4.97;2.70;;;18.80;99.90;;;;;;10521206;28;20222;-77
2022/08/23 04:04:04;;;;;;;3.10;1.92;;;18.80;99.90;;;;;;10533016;28;20210;-77
2022/08/23 04:09:29;;;;;;;4.95;2.33;;;18.80;99.90;;;;;;10562470;28;20195;-77
2022/08/23 04:14:52;;;;;;;4.95;3.10;;;18.80;99.90;;;;;;10562574;28;20213;-76
2022/08/23 04:20:59;;;;;;;5.15;2.50;;;18.80;99.90;;;;;;10562001;28;20244;-77
2022/08/23 04:26:40;;;;;;;5.88;2.90;;;18.80;99.90;;;;;;10544354;28;20489;-76
2022/08/23 04:32:03;;;;;;;6.20;2.30;;;18.90;99.90;;;;;;10519475;28;20198;-77
2022/08/23 04:37:24;;;;;;;3.42;2.50;;;18.90;99.90;;;;;;10505071;28;20202;-76
2022/08/23 04:42:47;;;;;;;3.30;2.30;;;18.90;99.90;;;;;;10520395;28;20238;-76
2022/08/23 04:48:09;;;;;;;3.88;2.33;;;18.90;99.90;;;;;;10505198;28;20377;-76
2022/08/23 04:53:34;;;;;;;7.50;2.60;;;19.00;99.90;;;;;;10505526;28;20485;-77
2022/08/23 04:59:14;;;;;;;2.78;2.10;;;19.10;99.90;;;;;;10520093;28;20215;-76
2022/08/23 05:04:38;;;;;;;5.38;3.30;;;19.20;99.90;;;;;;10522397;28;20202;-77
2022/08/23 05:09:59;;;;;;;7.93;3.40;;;19.20;99.90;;;;;;10560915;28;20477;-77
2022/08/23 05:15:20;;;;;;;4.95;3.08;;;19.30;99.90;;;;;;10560547;28;20201;-76
2022/08/23 05:20:50;;;;;;;5.00;2.78;;;19.40;99.90;;;;;;10545589;28;20241;-77
2022/08/23 05:26:12;;;;;;;7.30;2.88;;;19.40;99.90;;;;;;10560547;28;20261;-77
2022/08/23 05:31:35;;;;;;;4.80;2.33;;;19.40;99.90;;;;;;10521799;28;20494;-76
2022/08/23 05:36:56;;;;;;;4.18;2.67;;;19.50;99.90;;;;;;10518265;28;20195;-82
2022/08/23 05:42:23;;;;;;;3.00;2.25;;;19.50;99.90;;;;;;10504022;28;20553;-81
2022/08/23 05:47:46;;;;;;;6.45;2.65;;;19.50;99.90;;;;;;10504554;28;20191;-80
2022/08/23 05:53:16;;;;;;;12.30;3.88;;;19.70;99.90;;;;;;10518022;28;20206;-81
2022/08/23 05:58:40;;;;;;;6.78;3.03;;;19.70;99.90;;;;;;10517830;28;20192;-81
2022/08/23 06:04:04;;;;;;;4.82;2.92;;;19.70;99.90;;;;;;10529889;28;20208;-78
2022/08/23 06:09:26;;;;;;;4.55;2.95;;;19.80;99.90;;;;;;10531289;28;20388;-80
2022/08/23 06:14:48;;;;;;;5.30;2.92;;;19.90;99.90;;;;;;10559511;28;20182;-81
2022/08/23 06:20:10;;;;;;;4.97;2.42;;;20.00;99.90;;;;;;10558834;28;20229;-81
2022/08/23 06:25:49;;;;;;;5.68;3.25;;;20.20;99.90;;;;;;10561118;28;20224;-79
2022/08/23 06:31:12;;;;;;;10.38;3.67;;;20.40;99.90;;;;;;10519049;28;20199;-80
2022/08/23 06:36:54;;;;;;;5.30;3.05;;;20.60;99.90;;;;;;10524125;28;20188;-79
2022/08/23 06:42:34;;;;;;;5.78;3.05;;;20.70;99.90;;;;;;10512365;28;20540;-77
2022/08/23 06:47:57;;;;;;;4.78;2.85;;;20.90;99.90;;;;;;10510004;28;20410;-77
2022/08/23 06:53:18;;;;;;;5.85;3.83;;;21.00;99.90;;;;;;10510025;28;20504;-77
2022/08/23 06:58:58;;;;;;;4.93;3.25;;;21.10;99.90;;;;;;10523549;28;20208;-77
2022/08/23 07:04:38;;;;;;;7.55;3.28;;;21.10;99.90;;;;;;10538686;28;20232;-78
2022/08/23 07:10:18;;;;;;;7.15;3.70;;;21.10;99.90;;;;;;10565301;28;20190;-76
2022/08/23 07:15:39;;;;;;;4.53;3.53;;;21.00;99.90;;;;;;10566002;28;20191;-77
2022/08/23 07:21:04;;;;;;;7.10;3.78;;;20.90;99.90;;;;;;10564035;28;20301;-77
2022/08/23 07:26:28;;;;;;;6.20;4.13;;;21.00;99.90;;;;;;10564372;28;20198;-77
2022/08/23 07:31:53;;;;;;;8.70;4.93;;;21.00;99.90;;;;;;10513556;28;20467;-78
2022/08/23 07:37:16;;;;;;;9.15;7.40;;;21.00;99.90;;;;;;10507282;28;20524;-77
2022/08/23 07:42:39;;;;;;;22.58;14.88;;;21.00;99.90;;;;;;10521418;28;20215;-77
2022/08/23 07:48:02;;;;;;;10.88;6.22;;;21.10;99.90;;;;;;10521245;28;20187;-77
2022/08/23 07:53:30;;;;;;;24.40;13.00;;;21.30;99.90;;;;;;10521286;28;20498;-77
2022/08/23 07:58:51;;;;;;;32.70;19.45;;;21.70;99.90;;;;;;10521023;28;20195;-77
2022/08/23 08:04:39;;;;;;;27.05;14.30;;;21.70;99.90;;;;;;10514409;28;20213;-79
2022/08/23 08:10:02;;;;;;;15.52;8.82;;;21.80;99.90;;;;;;10545532;28;20213;-76
2022/08/23 08:15:25;;;;;;;10.43;5.22;;;21.80;99.90;;;;;;10545078;28;20413;-77
2022/08/23 08:20:56;;;;;;;10.85;4.70;;;21.80;99.90;;;;;;10532389;28;20237;-77
2022/08/23 08:26:44;;;;;;;7.50;4.22;;;;;;;;;;10542061;28;20206;-78
2022/08/23 08:32:06;;;;;;;5.88;3.55;;;23.40;99.90;;;;;;10508699;28;20415;-78
2022/08/23 08:37:30;;;;;;;6.82;2.95;;;22.30;99.90;;;;;;10515885;28;20195;-78
2022/08/23 08:43:36;;;;;;;7.28;3.42;;;22.20;99.90;;;;;;10477892;28;20227;-77
2022/08/23 08:49:03;;;;;;;4.82;3.30;;;22.10;99.90;;;;;;10474531;28;20204;-79
2022/08/23 08:54:28;;;;;;;4.10;3.15;;;22.20;99.90;;;;;;10460874;28;20234;-77
2022/08/23 08:59:50;;;;;;;4.28;2.80;;;22.10;99.90;;;;;;10460194;28;20254;-81
2022/08/23 09:05:25;;;;;;;22.40;11.80;;;22.00;99.90;;;;;;10486129;28;20195;-78
2022/08/23 09:10:58;;;;;;;19.08;12.38;;;22.00;99.90;;;;;;10460544;28;20394;-77
2022/08/23 09:16:28;;;;;;;15.00;9.60;;;22.00;99.90;;;;;;10474268;28;20208;-78
2022/08/23 09:21:59;;;;;;;6.68;4.78;;;21.90;99.90;;;;;;10484447;28;20237;-77
2022/08/23 09:27:21;;;;;;;3.88;3.40;;;22.00;99.90;;;;;;10518293;28;20191;-78
2022/08/23 09:32:45;;;;;;;5.85;3.70;;;22.00;99.90;;;;;;10517957;28;20331;-77
2022/08/23 09:38:19;;;;;;;7.93;5.03;;;22.10;99.90;;;;;;10518127;28;20379;-80
2022/08/23 09:43:47;;;;;;;19.20;13.40;;;22.20;99.90;;;;;;10490114;28;20587;-77
2022/08/23 09:49:28;;;;;;;15.00;9.40;;;22.20;99.90;;;;;;10518109;28;20187;-78
2022/08/23 09:55:24;;;;;;;39.08;22.10;;;22.20;99.90;;;;;;10517720;28;20204;-77
2022/08/23 10:01:00;;;;;;;21.50;11.75;;;22.40;99.90;;;;;;10519071;28;20547;-79
2022/08/23 10:06:32;;;;;;;8.15;5.35;;;22.50;99.90;;;;;;10545436;28;20510;-78
2022/08/23 10:11:59;;;;;;;5.82;4.15;;;22.60;99.90;;;;;;10511027;28;20199;-79
2022/08/23 10:17:33;;;;;;;18.23;10.93;;;;;;;;;;10525758;28;20227;-78
2022/08/23 10:23:14;;;;;;;21.25;10.63;;;22.90;99.90;;;;;;10524768;28;20222;-78
2022/08/23 10:29:36;;;;;;;7.43;4.82;;;23.00;99.90;;;;;;10511506;28;20195;-78
2022/08/23 10:35:19;;;;;;;25.98;14.48;;;23.10;99.90;;;;;;10483181;28;20196;-78
2022/08/23 10:40:41;;;;;;;17.98;10.77;;;23.00;99.90;;;;;;10511213;28;20211;-79
2022/08/23 10:46:11;;;;;;;16.13;7.18;;;23.10;99.90;;;;;;10484058;28;20192;-76
2022/08/23 10:51:35;;;;;;;20.02;8.75;;;23.20;99.90;;;;;;10482671;28;20254;-79
2022/08/23 10:56:57;;;;;;;9.90;4.65;;;23.60;99.90;;;;;;10482285;28;20188;-78
2022/08/23 11:03:00;;;;;;;12.55;6.35;;;23.90;99.90;;;;;;10505286;28;20219;-78
2022/08/23 11:08:32;;;;;;;6.57;4.13;;;23.80;99.90;;;;;;10463558;28;20207;-78
2022/08/23 11:13:58;;;;;;;12.25;5.20;;;24.00;99.90;;;;;;10464585;28;20275;-81
2022/08/23 11:19:51;;;;;;;11.32;4.65;;;24.70;99.90;;;;;;9403116;28;20562;-80
2022/08/23 11:25:16;;;;;;;7.25;4.57;;;25.30;99.90;;;;;;10464496;28;20212;-78
2022/08/23 11:30:48;;;;;;;16.10;5.85;;;25.30;99.90;;;;;;10463823;28;20309;-78
2022/08/23 11:36:23;;;;;;;14.90;4.53;;;25.10;99.90;;;;;;10463989;28;20387;-80
2022/08/23 11:41:54;;;;;;;16.52;8.75;;;25.00;99.90;;;;;;10450874;28;20302;-81
2022/08/23 11:47:42;;;;;;;15.48;6.93;;;25.00;99.90;;;;;;10507600;28;20230;-77
2022/08/23 11:53:25;;;;;;;22.65;12.13;;;25.20;99.90;;;;;;10521255;28;20191;-79
2022/08/23 11:58:55;;;;;;;25.40;14.40;;;25.70;99.90;;;;;;10521346;28;20262;-77
2022/08/23 12:04:34;;;;;;;21.05;8.93;;;25.90;99.90;;;;;;10536515;28;20202;-77
2022/08/23 12:09:56;;;;;;;11.52;5.80;;;26.30;99.90;;;;;;10528593;28;20203;-78
2022/08/23 12:15:17;;;;;;;16.48;7.10;;;27.10;99.90;;;;;;10521747;28;20229;-77
2022/08/23 12:20:40;;;;;;;22.48;8.57;;;26.80;99.90;;;;;;10506110;28;20247;-77
2022/08/23 12:26:28;;;;;;;27.80;12.02;;;26.10;99.90;;;;;;10533758;28;20264;-78
2022/08/23 12:32:19;;;;;;;13.75;7.47;;;25.60;99.90;;;;;;10519345;28;20476;-78
2022/08/23 12:38:11;;;;;;;25.25;12.00;;;25.30;99.90;;;;;;10520498;28;20191;-78
2022/08/23 12:43:32;;;;;;;20.05;9.73;;;25.10;99.90;;;;;;10519388;28;20227;-78
2022/08/23 12:48:53;;;;;;;22.08;11.10;;;25.00;99.90;;;;;;10518977;28;20199;-78
2022/08/23 12:54:18;;;;;;;12.60;6.20;;;25.00;99.90;;;;;;10519111;28;20187;-78
2022/08/23 12:59:44;;;;;;;18.83;5.45;;;25.00;99.90;;;;;;10520218;28;20211;-81
2022/08/23 13:05:21;;;;;;;10.30;4.68;;;25.00;99.90;;;;;;10541178;28;20201;-81
2022/08/23 13:10:44;;;;;;;13.23;4.90;;;25.00;99.90;;;;;;10524614;28;20195;-80
2022/08/23 13:16:28;;;;;;;12.38;5.15;;;25.00;99.90;;;;;;10518887;28;20199;-77
2022/08/23 13:22:09;;;;;;;16.25;5.20;;;25.20;99.90;;;;;;10517995;28;20253;-78
2022/08/23 13:27:48;;;;;;;8.75;4.35;;;25.20;99.90;;;;;;10518664;28;20199;-77
2022/08/23 13:33:13;;;;;;;10.80;4.28;;;25.50;99.90;;;;;;10518966;28;20274;-77
2022/08/23 13:38:34;;;;;;;13.13;4.20;;;25.70;99.90;;;;;;10527470;28;20355;-77
2022/08/23 13:43:56;;;;;;;9.88;4.45;;;26.00;99.90;;;;;;10526719;28;20440;-81
2022/08/23 13:49:27;;;;;;;10.30;4.80;;;26.00;99.90;;;;;;10527590;28;20194;-78
2022/08/23 13:54:49;;;;;;;14.98;4.75;;;26.10;99.90;;;;;;10526048;28;20203;-77
2022/08/23 14:00:11;;;;;;;12.23;5.05;;;26.20;99.90;;;;;;10526732;28;20245;-77
2022/08/23 14:05:34;;;;;;;13.27;4.72;;;26.30;99.90;;;;;;10552185;28;20195;-77
2022/08/23 14:10:56;;;;;;;15.38;5.55;;;26.40;99.90;;;;;;10538500;28;20233;-79
2022/08/23 14:16:25;;;;;;;9.85;4.18;;;26.40;99.90;;;;;;10526308;28;20342;-79
2022/08/23 14:21:54;;;;;;;10.95;4.78;;;26.40;99.90;;;;;;10525627;28;20238;-78
2022/08/23 14:27:16;;;;;;;8.55;4.70;;;26.30;99.90;;;;;;10525885;28;20203;-78
2022/08/23 14:32:39;;;;;;;17.35;5.22;;;26.20;99.90;;;;;;10524110;28;20207;-78
2022/08/23 14:38:01;;;;;;;12.02;5.55;;;25.90;99.90;;;;;;10524691;28;20194;-77
2022/08/23 14:43:24;;;;;;;9.52;4.55;;;25.60;99.90;;;;;;10525452;28;20236;-77
2022/08/23 14:48:47;;;;;;;14.80;4.88;;;25.40;99.90;;;;;;10524348;28;20229;-79
2022/08/23 14:54:13;;;;;;;15.60;5.60;;;25.40;99.90;;;;;;10524875;28;20210;-77
2022/08/23 14:59:34;;;;;;;8.15;4.25;;;25.30;99.90;;;;;;10524613;28;20249;-78
2022/08/23 15:04:56;;;;;;;12.10;5.07;;;25.20;99.90;;;;;;10521490;28;20221;-77
2022/08/23 15:10:17;;;;;;;10.15;5.90;;;25.20;99.90;;;;;;10546870;28;20199;-77
2022/08/23 15:16:00;;;;;;;10.48;5.43;;;25.10;99.90;;;;;;10523956;28;20183;-77
2022/08/23 15:21:21;;;;;;;15.90;5.75;;;25.00;99.90;;;;;;10522885;28;20330;-77
2022/08/23 15:26:43;;;;;;;16.67;4.90;;;25.00;99.90;;;;;;10523729;28;20270;-82
2022/08/23 15:32:05;;;;;;;8.93;5.00;;;25.00;99.90;;;;;;10507899;28;20287;-77
2022/08/23 15:37:26;;;;;;;13.52;4.78;;;25.00;99.90;;;;;;10523421;28;20195;-78
2022/08/23 15:42:47;;;;;;;7.22;4.60;;;25.10;99.90;;;;;;10522229;28;20286;-77
2022/08/23 15:48:24;;;;;;;11.43;4.55;;;25.10;99.90;;;;;;10522563;28;20241;-77
2022/08/23 15:53:46;;;;;;;17.98;5.90;;;25.00;99.90;;;;;;10522815;28;20477;-78
2022/08/23 15:59:12;;;;;;;10.65;5.07;;;24.80;99.90;;;;;;10521305;28;20237;-77
2022/08/23 16:04:33;;;;;;;14.07;5.38;;;24.60;99.90;;;;;;10513091;28;20602;-78
2022/08/23 16:09:54;;;;;;;8.40;4.80;;;24.40;99.90;;;;;;10555936;28;20195;-77
2022/08/23 16:15:15;;;;;;;13.18;4.80;;;24.20;99.90;;;;;;10520160;28;20448;-77
2022/08/23 16:20:37;;;;;;;11.05;4.97;;;24.00;99.90;;;;;;10520363;28;20234;-78
2022/08/23 16:25:58;;;;;;;10.63;5.07;;;23.70;99.90;;;;;;10520348;28;20202;-78
2022/08/23 16:31:21;;;;;;;13.27;6.03;;;;;;;;;;10505411;28;20489;-79
2022/08/23 16:36:44;;;;;;;12.57;5.47;;;;;;;;;;10519637;28;20203;-79
2022/08/23 16:42:06;;;;;;;11.65;5.03;;;;;;;;;;10519710;28;20226;-79
2022/08/23 16:47:40;;;;;;;20.17;6.13;;;25.80;99.90;;;;;;10519980;28;20195;-77
2022/08/23 16:53:02;;;;;;;13.80;5.38;;;23.20;99.90;;;;;;10520302;28;20199;-77
2022/08/23 16:58:27;;;;;;;9.77;5.80;;;23.10;99.90;;;;;;10518652;28;20195;-78
2022/08/23 17:03:50;;;;;;;8.45;5.03;;;22.90;99.90;;;;;;10515718;28;20228;-77
2022/08/23 17:09:12;;;;;;;10.77;5.22;;;22.90;99.90;;;;;;10560572;28;20421;-77
2022/08/23 17:14:33;;;;;;;10.73;5.13;;;22.70;99.90;;;;;;10519485;28;20187;-78
2022/08/23 17:19:54;;;;;;;15.35;5.95;;;22.70;99.90;;;;;;10519522;28;20450;-77
2022/08/23 17:25:18;;;;;;;13.40;6.28;;;22.60;99.90;;;;;;10518322;28;20227;-78
2022/08/23 17:30:39;;;;;;;8.50;5.53;;;22.60;99.90;;;;;;10519620;28;20199;-78
2022/08/23 17:36:01;;;;;;;11.10;5.85;;;22.70;99.90;;;;;;10519623;28;20187;-79
2022/08/23 17:41:24;;;;;;;14.68;7.05;;;22.70;99.90;;;;;;10519076;28;20219;-77
2022/08/23 17:46:46;;;;;;;11.30;6.60;;;22.40;99.90;;;;;;10519429;28;20195;-77
2022/08/23 17:52:07;;;;;;;15.38;8.07;;;22.50;99.90;;;;;;10519358;28;20244;-79
2022/08/23 17:57:29;;;;;;;13.68;7.53;;;22.50;99.90;;;;;;10518973;28;20225;-77
2022/08/23 18:02:50;;;;;;;10.23;6.53;;;22.50;99.90;;;;;;10521089;28;20241;-78
2022/08/23 18:08:12;;;;;;;11.50;7.13;;;22.40;99.90;;;;;;10559873;28;20190;-78
2022/08/23 18:13:34;;;;;;;10.55;6.50;;;22.30;99.90;;;;;;10521670;28;20207;-78
2022/08/23 18:18:56;;;;;;;12.57;6.18;;;22.30;99.90;;;;;;10517485;28;20361;-77
2022/08/23 18:24:18;;;;;;;10.70;5.50;;;22.30;99.90;;;;;;10522675;28;20247;-77
2022/08/23 18:29:39;;;;;;;7.85;5.25;;;22.20;99.90;;;;;;10525696;28;20187;-78
2022/08/23 18:35:00;;;;;;;11.90;5.45;;;22.10;99.90;;;;;;10525779;28;20213;-78
2022/08/23 18:40:22;;;;;;;16.63;6.20;;;22.10;99.90;;;;;;10525541;28;20191;-77
2022/08/23 18:45:45;;;;;;;12.55;5.13;;;22.00;99.90;;;;;;10524747;28;20211;-77
2022/08/23 18:51:08;;;;;;;13.15;6.18;;;21.80;99.90;;;;;;10524578;28;20191;-77
2022/08/23 18:56:30;;;;;;;20.63;6.47;;;21.70;99.90;;;;;;10525146;28;20407;-81
2022/08/23 19:01:51;;;;;;;13.18;5.68;;;21.70;99.90;;;;;;10524992;28;20219;-78
2022/08/23 19:07:12;;;;;;;12.45;5.65;;;21.70;99.90;;;;;;10563520;28;20221;-78
2022/08/23 19:12:33;;;;;;;14.48;6.20;;;21.60;99.90;;;;;;10537151;28;20202;-76
2022/08/23 19:17:58;;;;;;;13.48;6.00;;;21.60;99.90;;;;;;10524207;28;20645;-78
2022/08/23 19:23:20;;;;;;;13.98;5.55;;;;;;;;;;10523651;28;20294;-77
2022/08/23 19:28:41;;;;;;;11.13;6.80;;;21.40;99.90;;;;;;10523897;28;20549;-80
2022/08/23 19:34:04;;;;;;;15.80;7.70;;;;;;;;;;10522271;28;20227;-77
2022/08/23 19:39:26;;;;;;;18.40;7.13;;;;;;;;;;10523299;28;20267;-77
2022/08/23 19:44:48;;;;;;;19.00;6.72;;;21.40;99.90;;;;;;10522210;28;20214;-79
2022/08/23 19:50:10;;;;;;;15.07;6.95;;;;;;;;;;10523106;28;20255;-80
2022/08/23 19:55:32;;;;;;;13.85;6.50;;;;;;;;;;10521299;28;20280;-78
2022/08/23 20:00:54;;;;;;;11.38;5.80;;;;;;;;;;10522407;28;20268;-77
2022/08/23 20:06:16;;;;;;;9.25;5.25;;;;;;;;;;10553450;28;20377;-77
2022/08/23 20:11:38;;;;;;;10.38;5.78;;;;;;;;;;10542133;28;20201;-77
2022/08/23 20:17:03;;;;;;;13.35;6.55;;;;;;;;;;10521871;28;20195;-77
2022/08/23 20:28:07;;;;;;;9.15;5.55;;;;;;;;;;10521599;28;20486;-76
2022/08/23 20:33:29;;;;;;;10.73;5.95;;;;;;;;;;10521247;28;20199;-77
2022/08/23 20:38:51;;;;;;;9.15;5.22;;;21.30;99.90;;;;;;10505512;28;20201;-77
2022/08/23 20:44:13;;;;;;;13.82;5.80;;;21.30;99.90;;;;;;10520133;28;20276;-76
2022/08/23 20:49:35;;;;;;;9.52;5.10;;;21.20;99.90;;;;;;10520502;28;20266;-77
2022/08/23 20:54:56;;;;;;;11.98;6.00;;;21.20;99.90;;;;;;10519665;28;20211;-76
2022/08/23 21:00:21;;;;;;;10.93;5.32;;;;;;;;;;10520035;28;20202;-76
2022/08/23 21:05:46;;;;;;;9.52;5.43;;;;;;;;;;10546391;28;20214;-76
2022/08/23 21:11:10;;;;;;;6.72;5.05;;;;;;;;;;10544065;28;20203;-76
2022/08/23 21:16:32;;;;;;;6.47;4.60;;;;;;;;;;10505282;28;20210;-76
2022/08/23 21:21:57;;;;;;;9.23;5.30;;;;;;;;;;10518283;28;20281;-76
2022/08/23 21:27:21;;;;;;;11.75;5.30;;;;;;;;;;10518466;28;20270;-77
2022/08/23 21:32:45;;;;;;;11.23;5.32;;;;;;;;;;10519226;28;20195;-77
2022/08/23 21:38:09;;;;;;;10.05;5.00;;;;;;;;;;10518268;28;20199;-77
2022/08/23 21:43:36;;;;;;;11.48;4.95;;;;;;;;;;10518588;28;20273;-77
2022/08/23 21:48:59;;;;;;;7.07;4.25;;;;;;;;;;10518170;28;20203;-77
2022/08/23 21:54:23;;;;;;;13.45;5.05;;;;;;;;;;10518194;28;20198;-76
2022/08/23 21:59:48;;;;;;;6.97;4.35;;;;;;;;;;10526008;28;20199;-77
2022/08/23 22:05:18;;;;;;;8.68;5.20;;;;;;;;;;10549844;28;20625;-76
2022/08/23 22:10:44;;;;;;;8.85;5.10;;;;;;;;;;10554492;28;20396;-77
2022/08/23 22:16:07;;;;;;;8.43;4.80;;;;;;;;;;10525507;28;20266;-76
2022/08/23 22:21:32;;;;;;;6.40;4.13;;;;;;;;;;10525084;28;20239;-78
2022/08/23 22:26:56;;;;;;;6.20;4.25;;;;;;;;;;10525026;28;20561;-77
2022/08/23 22:32:19;;;;;;;6.55;4.13;;;;;;;;;;10525734;28;20266;-76
2022/08/23 22:37:44;;;;;;;7.38;4.43;;;;;;;;;;10525959;28;20191;-77
2022/08/23 22:43:14;;;;;;;5.95;4.32;;;;;;;;;;10525616;28;20227;-76
2022/08/23 22:48:39;;;;;;;7.80;4.40;;;;;;;;;;10525228;28;20266;-77
2022/08/23 22:54:04;;;;;;;7.15;4.43;;;20.60;99.90;;;;;;10524347;28;20319;-76
2022/08/23 22:59:25;;;;;;;7.78;4.30;;;20.60;99.90;;;;;;10525105;28;20199;-77
2022/08/23 23:04:46;;;;;;;9.07;4.88;;;20.60;99.90;;;;;;10520365;28;20391;-78
2022/08/23 23:10:09;;;;;;;7.60;4.93;;;20.60;99.90;;;;;;10557449;28;20199;-76
2022/08/23 23:15:30;;;;;;;7.55;4.55;;;20.60;99.90;;;;;;10524261;28;20195;-77
2022/08/23 23:20:56;;;;;;;5.22;4.15;;;20.60;99.90;;;;;;10523118;28;20229;-78
2022/08/23 23:26:18;;;;;;;6.60;4.28;;;20.60;99.90;;;;;;10523852;28;20219;-77
2022/08/23 23:31:39;;;;;;;6.60;5.13;;;20.50;99.90;;;;;;10523556;28;20195;-78
2022/08/23 23:37:01;;;;;;;7.75;4.65;;;20.50;99.90;;;;;;10508650;28;20207;-80
2022/08/23 23:42:22;;;;;;;10.05;5.20;;;20.50;99.90;;;;;;10523239;28;20215;-80
2022/08/23 23:47:44;;;;;;;6.97;4.82;;;20.50;99.90;;;;;;10521894;28;20198;-77
2022/08/23 23:53:06;;;;;;;6.63;5.10;;;20.40;99.90;;;;;;10521819;28;20409;-76
2022/08/23 23:58:27;;;;;;;12.43;5.40;;;20.40;99.90;;;;;;10521190;28;20270;-77
